createdAt,value
2022-12-16T00:02:07.593Z,95.60
2022-12-16T00:04:34.521Z,95.60
2022-12-16T00:07:01.300Z,95.60
2022-12-16T00:09:28.144Z,95.70
2022-12-16T00:11:54.989Z,95.50
2022-12-16T00:14:21.758Z,95.70
2022-12-16T00:16:48.640Z,95.60
2022-12-16T00:19:15.610Z,95.60
2022-12-16T00:21:42.449Z,95.60
2022-12-16T00:24:09.215Z,95.70
2022-12-16T00:26:36.025Z,95.60
2022-12-16T00:29:05.510Z,95.70
2022-12-16T00:31:32.551Z,95.60
2022-12-16T00:33:59.686Z,95.60
2022-12-16T00:36:26.531Z,95.50
2022-12-16T00:38:53.637Z,95.60
2022-12-16T00:41:20.648Z,95.70
2022-12-16T00:43:47.798Z,95.60
2022-12-16T00:46:14.738Z,95.70
2022-12-16T00:48:41.573Z,95.70
2022-12-16T00:51:08.357Z,95.70
2022-12-16T00:53:36.217Z,95.80
2022-12-16T00:56:11.500Z,95.70
2022-12-16T00:58:38.590Z,95.80
2022-12-16T01:01:05.774Z,95.80
2022-12-16T01:03:33.343Z,95.70
2022-12-16T01:06:00.454Z,95.80
2022-12-16T01:08:27.373Z,95.80
2022-12-16T01:10:56.254Z,95.60
2022-12-16T01:13:24.680Z,95.70
2022-12-16T01:15:52.239Z,95.90
2022-12-16T01:18:19.205Z,95.90
2022-12-16T01:20:46.052Z,96.00
2022-12-16T01:23:12.877Z,96.00
2022-12-16T01:25:39.693Z,95.90
2022-12-16T01:28:06.488Z,96.00
2022-12-16T01:30:33.258Z,96.00
2022-12-16T01:33:00.052Z,96.10
2022-12-16T01:35:54.780Z,96.10
2022-12-16T01:38:13.691Z,96.10
2022-12-16T01:40:40.541Z,96.20
2022-12-16T01:43:14.885Z,96.20
2022-12-16T01:45:41.804Z,96.20
2022-12-16T01:48:24.824Z,96.40
2022-12-16T01:50:58.217Z,96.50
2022-12-16T01:53:25.133Z,96.50
2022-12-16T01:55:55.523Z,96.50
2022-12-16T01:58:27.082Z,96.50
2022-12-16T02:00:54.711Z,96.50
2022-12-16T02:03:22.608Z,96.60
2022-12-16T02:05:49.857Z,96.60
2022-12-16T02:08:19.562Z,96.50
2022-12-16T02:11:01.105Z,96.50
2022-12-16T02:13:46.473Z,96.60
2022-12-16T02:16:39.141Z,96.40
2022-12-16T02:19:25.974Z,96.40
2022-12-16T02:22:19.886Z,96.50
2022-12-16T02:25:22.862Z,96.60
2022-12-16T02:28:07.942Z,96.60
2022-12-16T02:30:58.287Z,96.40
2022-12-16T02:33:50.866Z,96.30
2022-12-16T02:36:17.683Z,96.20
2022-12-16T02:38:58.715Z,96.10
2022-12-16T02:41:55.465Z,96.10
2022-12-16T02:44:39.855Z,96.10
2022-12-16T02:47:06.702Z,96.00
2022-12-16T02:49:33.429Z,96.00
2022-12-16T02:52:01.866Z,96.00
2022-12-16T02:54:29.419Z,96.30
2022-12-16T02:57:29.717Z,96.10
2022-12-16T03:00:12.914Z,96.40
2022-12-16T03:02:57.807Z,96.40
2022-12-16T03:05:32.941Z,96.50
2022-12-16T03:08:06.138Z,96.50
2022-12-16T03:10:43.474Z,96.40
2022-12-16T03:13:11.747Z,96.50
2022-12-16T03:15:41.311Z,96.50
2022-12-16T03:18:10.747Z,96.40
2022-12-16T03:20:41.277Z,96.40
2022-12-16T03:23:13.730Z,96.60
2022-12-16T03:25:43.385Z,96.30
2022-12-16T03:28:39.920Z,96.30
2022-12-16T03:31:30.020Z,96.50
2022-12-16T03:34:19.876Z,96.60
2022-12-16T03:36:51.582Z,96.50
2022-12-16T03:39:20.834Z,96.60
2022-12-16T03:41:53.719Z,96.50
2022-12-16T03:44:23.030Z,96.50
2022-12-16T03:46:50.036Z,96.50
2022-12-16T03:49:16.849Z,96.20
2022-12-16T03:51:43.624Z,96.30
2022-12-16T03:54:10.470Z,96.30
2022-12-16T03:56:37.297Z,96.30
2022-12-16T03:59:04.098Z,96.30
2022-12-16T04:01:30.992Z,96.30
2022-12-16T04:03:57.919Z,96.30
2022-12-16T04:06:24.826Z,96.40
2022-12-16T04:08:51.762Z,96.50
2022-12-16T04:11:37.026Z,96.50
2022-12-16T04:14:22.541Z,96.60
2022-12-16T04:17:08.217Z,96.50
2022-12-16T04:19:57.666Z,96.50
2022-12-16T04:22:43.258Z,96.60
2022-12-16T04:25:31.744Z,96.50
2022-12-16T04:27:59.116Z,96.50
2022-12-16T04:30:27.673Z,96.50
2022-12-16T04:33:26.444Z,96.50
2022-12-16T04:36:11.913Z,96.50
2022-12-16T04:38:57.549Z,96.50
2022-12-16T04:41:43.153Z,96.60
2022-12-16T04:44:28.626Z,96.40
2022-12-16T04:47:14.010Z,96.50
2022-12-16T04:49:59.211Z,96.70
2022-12-16T04:52:44.563Z,96.80
2022-12-16T04:55:46.857Z,96.80
2022-12-16T04:58:32.007Z,96.70
2022-12-16T05:01:18.226Z,96.90
2022-12-16T05:04:03.652Z,96.80
2022-12-16T05:06:48.938Z,96.70
2022-12-16T05:09:34.154Z,96.90
2022-12-16T05:12:19.647Z,97.00
2022-12-16T05:15:05.188Z,97.10
2022-12-16T05:17:50.507Z,97.00
2022-12-16T05:20:35.997Z,96.80
2022-12-16T05:23:21.467Z,96.90
2022-12-16T05:26:06.927Z,96.80
2022-12-16T05:28:52.274Z,96.80
2022-12-16T05:31:37.469Z,96.70
2022-12-16T05:34:22.603Z,96.80
2022-12-16T05:37:08.139Z,96.80
2022-12-16T05:39:53.655Z,97.00
2022-12-16T05:42:39.483Z,96.80
2022-12-16T05:45:25.482Z,97.00
2022-12-16T05:48:11.341Z,97.00
2022-12-16T05:50:56.585Z,97.00
2022-12-16T05:53:42.001Z,96.90
2022-12-16T05:56:27.579Z,97.00
2022-12-16T05:59:12.980Z,97.00
2022-12-16T06:01:58.391Z,97.30
2022-12-16T06:04:43.818Z,97.20
2022-12-16T06:07:29.094Z,97.20
2022-12-16T06:10:14.437Z,97.10
2022-12-16T06:12:59.964Z,97.20
2022-12-16T06:15:45.515Z,97.30
2022-12-16T06:18:30.936Z,97.40
2022-12-16T06:21:16.268Z,97.20
2022-12-16T06:24:01.371Z,97.30
2022-12-16T06:26:46.966Z,97.30
2022-12-16T06:29:32.355Z,97.30
2022-12-16T06:32:17.801Z,97.30
2022-12-16T06:35:03.241Z,97.40
2022-12-16T06:37:48.522Z,97.30
2022-12-16T06:40:33.748Z,97.40
2022-12-16T06:43:19.339Z,97.40
2022-12-16T06:46:05.154Z,97.30
2022-12-16T06:48:50.712Z,97.30
2022-12-16T06:51:35.942Z,97.50
2022-12-16T06:54:21.517Z,97.40
2022-12-16T06:57:07.165Z,97.60
2022-12-16T06:59:52.787Z,97.70
2022-12-16T07:02:38.333Z,97.70
2022-12-16T07:05:24.335Z,97.80
2022-12-16T07:08:10.925Z,97.70
2022-12-16T07:11:02.318Z,97.90
2022-12-16T07:13:58.928Z,98.20
2022-12-16T07:16:44.649Z,98.10
2022-12-16T07:19:29.932Z,98.80
2022-12-16T07:22:15.344Z,99.40
2022-12-16T07:25:00.718Z,99.60
2022-12-16T07:27:56.929Z,99.50
2022-12-16T07:30:42.458Z,99.60
2022-12-16T07:33:27.874Z,99.70
2022-12-16T07:36:13.313Z,99.60
2022-12-16T07:38:58.848Z,99.90
2022-12-16T07:41:44.293Z,99.90
2022-12-16T07:44:29.895Z,99.90
2022-12-16T07:47:15.603Z,99.90
2022-12-16T07:50:01.085Z,99.90
2022-12-16T07:52:46.302Z,99.90
2022-12-16T07:55:31.894Z,99.90
2022-12-16T07:58:17.176Z,99.90
2022-12-16T08:01:07.689Z,99.90
2022-12-16T08:03:54.640Z,99.90
2022-12-16T08:06:41.958Z,99.90
2022-12-16T08:09:27.490Z,99.90
2022-12-16T08:12:13.078Z,99.90
2022-12-16T08:14:58.782Z,99.90
2022-12-16T08:17:44.194Z,99.90
2022-12-16T08:20:29.806Z,99.90
2022-12-16T08:23:15.183Z,99.90
2022-12-16T08:26:00.771Z,99.90
2022-12-16T08:28:46.331Z,99.90
2022-12-16T08:31:31.902Z,99.90
2022-12-16T08:34:17.654Z,99.90
2022-12-16T08:37:03.167Z,99.90
2022-12-16T08:40:04.873Z,99.90
2022-12-16T08:42:54.298Z,99.90
2022-12-16T08:45:42.259Z,99.90
2022-12-16T08:48:27.942Z,99.90
2022-12-16T08:51:13.286Z,99.90
2022-12-16T08:53:58.940Z,99.90
2022-12-16T08:56:44.894Z,99.90
2022-12-16T08:59:30.163Z,99.90
2022-12-16T09:02:15.642Z,99.90
2022-12-16T09:05:01.362Z,99.90
2022-12-16T09:07:47.041Z,99.90
2022-12-16T09:10:39.025Z,99.90
2022-12-16T09:13:33.535Z,99.90
2022-12-16T09:16:20.013Z,99.90
2022-12-16T09:19:05.663Z,99.90
2022-12-16T09:21:51.183Z,99.90
2022-12-16T09:24:37.140Z,99.90
2022-12-16T09:27:22.691Z,99.90
2022-12-16T09:30:07.975Z,99.90
2022-12-16T09:32:53.826Z,99.90
2022-12-16T09:35:39.671Z,99.90
2022-12-16T09:38:25.175Z,99.90
2022-12-16T09:41:10.484Z,99.90
2022-12-16T09:44:01.591Z,99.90
2022-12-16T09:47:17.529Z,99.90
2022-12-16T09:50:08.880Z,99.90
2022-12-16T09:53:13.827Z,99.90
2022-12-16T09:56:01.224Z,99.90
2022-12-16T09:58:55.592Z,99.90
2022-12-16T10:01:41.410Z,99.90
2022-12-16T10:04:26.987Z,99.90
2022-12-16T10:07:17.319Z,99.90
2022-12-16T10:10:17.483Z,99.90
2022-12-16T10:13:18.019Z,99.90
2022-12-16T10:16:08.366Z,99.90
2022-12-16T10:19:15.086Z,99.90
2022-12-16T10:22:06.867Z,99.90
2022-12-16T10:25:00.991Z,99.90
2022-12-16T10:28:03.561Z,99.90
2022-12-16T10:30:50.801Z,99.90
2022-12-16T10:33:38.719Z,99.90
2022-12-16T10:36:29.518Z,99.90
2022-12-16T10:39:19.573Z,99.90
2022-12-16T10:42:10.394Z,99.90
2022-12-16T10:45:01.756Z,99.90
2022-12-16T10:47:47.325Z,99.90
2022-12-16T10:50:53.544Z,99.90
2022-12-16T10:53:45.359Z,99.90
2022-12-16T10:57:14.384Z,99.90
2022-12-16T11:00:00.077Z,99.90
2022-12-16T11:02:47.792Z,99.90
2022-12-16T11:05:53.716Z,99.90
2022-12-16T11:08:53.376Z,99.90
2022-12-16T11:11:44.136Z,99.90
2022-12-16T11:15:05.635Z,99.90
2022-12-16T11:17:49.299Z,99.90
2022-12-16T11:20:38.665Z,99.90
2022-12-16T11:23:41.999Z,99.90
2022-12-16T11:26:36.057Z,99.90
2022-12-16T11:29:27.888Z,99.90
2022-12-16T11:32:22.259Z,99.90
2022-12-16T11:35:15.233Z,99.90
2022-12-16T11:38:02.140Z,99.90
2022-12-16T11:40:50.179Z,99.90
2022-12-16T11:43:37.311Z,99.90
2022-12-16T11:46:28.653Z,99.90
2022-12-16T11:49:25.515Z,99.90
2022-12-16T11:52:36.346Z,99.90
2022-12-16T11:56:04.922Z,99.90
2022-12-16T11:58:54.185Z,99.90
2022-12-16T12:01:45.252Z,99.90
2022-12-16T12:04:32.770Z,99.90
2022-12-16T12:07:45.702Z,99.90
2022-12-16T12:10:52.590Z,99.90
2022-12-16T12:13:57.113Z,99.90
2022-12-16T12:17:13.280Z,99.90
2022-12-16T12:20:07.698Z,99.90
2022-12-16T12:22:58.756Z,99.90
2022-12-16T12:26:02.128Z,99.90
2022-12-16T12:29:02.695Z,99.90
2022-12-16T12:31:53.528Z,99.90
2022-12-16T12:34:40.913Z,99.90
2022-12-16T12:37:43.554Z,99.90
2022-12-16T12:40:35.470Z,99.90
2022-12-16T12:43:31.984Z,99.90
2022-12-16T12:46:42.324Z,99.90
2022-12-16T12:49:40.106Z,99.90
2022-12-16T12:52:41.370Z,99.90
2022-12-16T12:55:51.904Z,99.90
2022-12-16T12:58:38.321Z,99.90
2022-12-16T13:01:25.655Z,99.90
2022-12-16T13:04:25.209Z,99.90
2022-12-16T13:07:15.332Z,99.90
2022-12-16T13:10:01.029Z,99.90
2022-12-16T13:12:46.434Z,99.90
2022-12-16T13:15:53.687Z,99.90
2022-12-16T13:18:44.160Z,99.90
2022-12-16T13:22:08.042Z,99.90
2022-12-16T13:24:58.556Z,99.90
2022-12-16T13:27:46.953Z,99.90
2022-12-16T13:30:35.025Z,99.90
2022-12-16T13:33:25.238Z,99.90
2022-12-16T13:36:15.770Z,99.90
2022-12-16T13:39:09.413Z,99.90
2022-12-16T13:41:54.397Z,99.90
2022-12-16T13:45:01.329Z,99.90
2022-12-16T13:48:00.472Z,99.90
2022-12-16T13:50:56.601Z,99.90
2022-12-16T13:53:46.171Z,99.90
2022-12-16T13:56:48.703Z,99.90
2022-12-16T13:59:40.387Z,99.90
2022-12-16T14:02:48.969Z,99.90
2022-12-16T14:05:55.937Z,99.90
2022-12-16T14:08:43.409Z,99.90
2022-12-16T14:11:41.083Z,99.90
2022-12-16T14:14:44.526Z,99.90
2022-12-16T14:17:49.340Z,99.90
2022-12-16T14:20:41.368Z,99.90
2022-12-16T14:23:57.925Z,99.90
2022-12-16T14:26:45.290Z,99.90
2022-12-16T14:29:41.297Z,99.90
2022-12-16T14:32:46.733Z,99.90
2022-12-16T14:35:37.012Z,99.90
2022-12-16T14:38:41.141Z,99.90
2022-12-16T14:41:44.469Z,99.90
2022-12-16T14:44:43.744Z,99.90
2022-12-16T14:47:37.010Z,99.90
2022-12-16T14:50:22.725Z,99.90
2022-12-16T14:53:07.876Z,99.90
2022-12-16T14:55:54.189Z,99.90
2022-12-16T14:58:42.451Z,99.90
2022-12-16T15:01:39.897Z,99.90
2022-12-16T15:04:34.722Z,99.90
2022-12-16T15:07:29.395Z,99.90
2022-12-16T15:10:17.037Z,99.90
2022-12-16T15:13:05.098Z,99.90
2022-12-16T15:15:50.433Z,99.90
2022-12-16T15:18:42.549Z,99.90
2022-12-16T15:21:27.873Z,99.90
2022-12-16T15:24:13.420Z,99.90
2022-12-16T15:26:59.049Z,99.90
2022-12-16T15:29:58.685Z,99.90
2022-12-16T15:32:44.353Z,99.90
2022-12-16T15:35:46.009Z,99.90
2022-12-16T15:38:34.573Z,99.90
2022-12-16T15:41:22.222Z,99.90
2022-12-16T15:44:08.754Z,99.90
2022-12-16T15:46:55.337Z,99.90
2022-12-16T15:49:53.329Z,99.90
2022-12-16T15:53:00.142Z,99.90
2022-12-16T15:56:04.609Z,99.90
2022-12-16T15:58:53.300Z,99.90
2022-12-16T16:01:45.333Z,99.90
2022-12-16T16:04:45.226Z,99.90
2022-12-16T16:07:39.628Z,99.90
2022-12-16T16:10:32.878Z,99.90
2022-12-16T16:13:18.614Z,99.90
2022-12-16T16:16:04.667Z,99.90
2022-12-16T16:18:49.970Z,99.90
2022-12-16T16:21:35.358Z,99.90
2022-12-16T16:24:21.002Z,99.90
2022-12-16T16:27:06.572Z,99.90
2022-12-16T16:29:52.116Z,99.90
2022-12-16T16:32:37.467Z,99.90
2022-12-16T16:35:22.850Z,99.90
2022-12-16T16:38:08.386Z,99.90
2022-12-16T16:40:54.530Z,99.90
2022-12-16T16:43:40.072Z,99.90
2022-12-16T16:46:53.580Z,99.90
2022-12-16T16:49:51.712Z,99.90
2022-12-16T16:52:40.358Z,99.90
2022-12-16T16:55:26.670Z,99.90
2022-12-16T16:58:12.185Z,99.90
2022-12-16T17:00:57.427Z,99.90
2022-12-16T17:03:43.563Z,99.90
2022-12-16T17:06:29.631Z,99.90
2022-12-16T17:09:15.098Z,99.90
2022-12-16T17:12:00.892Z,99.90
2022-12-16T17:14:46.070Z,99.90
2022-12-16T17:17:31.650Z,99.90
2022-12-16T17:20:17.310Z,99.90
2022-12-16T17:23:02.474Z,99.90
2022-12-16T17:25:47.960Z,99.90
2022-12-16T17:28:33.330Z,99.90
2022-12-16T17:31:18.706Z,99.90
2022-12-16T17:34:04.135Z,99.90
2022-12-16T17:36:49.507Z,99.90
2022-12-16T17:39:34.744Z,99.90
2022-12-16T17:42:20.290Z,99.90
2022-12-16T17:45:05.899Z,99.90
2022-12-16T17:48:11.283Z,99.90
2022-12-16T17:50:56.812Z,99.90
2022-12-16T17:53:42.119Z,99.90
2022-12-16T17:56:27.574Z,99.90
2022-12-16T17:59:12.755Z,99.90
2022-12-16T18:01:58.594Z,99.90
2022-12-16T18:04:44.272Z,99.90
2022-12-16T18:07:29.509Z,99.90
2022-12-16T18:10:15.032Z,99.90
2022-12-16T18:13:01.096Z,99.90
2022-12-16T18:15:46.734Z,99.90
2022-12-16T18:18:31.929Z,99.90
2022-12-16T18:21:30.985Z,99.90
2022-12-16T18:24:16.472Z,99.90
2022-12-16T18:27:01.951Z,99.90
2022-12-16T18:29:47.577Z,99.90
2022-12-16T18:32:35.463Z,99.90
2022-12-16T18:35:21.579Z,99.90
2022-12-16T18:38:06.958Z,99.90
2022-12-16T18:40:52.767Z,99.90
2022-12-16T18:43:38.135Z,99.90
2022-12-16T18:46:23.439Z,99.90
2022-12-16T18:49:08.812Z,99.90
2022-12-16T18:51:54.177Z,99.90
2022-12-16T18:54:39.452Z,99.90
2022-12-16T18:57:24.876Z,99.90
2022-12-16T19:00:10.331Z,99.90
2022-12-16T19:02:55.986Z,99.90
2022-12-16T19:05:41.320Z,99.90
2022-12-16T19:08:26.620Z,99.90
2022-12-16T19:11:18.099Z,99.90
2022-12-16T19:14:03.694Z,99.90
2022-12-16T19:16:49.085Z,99.90
2022-12-16T19:19:34.528Z,99.90
2022-12-16T19:22:20.063Z,99.90
2022-12-16T19:25:05.625Z,99.90
2022-12-16T19:27:51.192Z,99.90
2022-12-16T19:30:37.640Z,99.90
2022-12-16T19:33:22.913Z,99.90
2022-12-16T19:36:08.353Z,99.90
2022-12-16T19:38:54.952Z,99.80
2022-12-16T19:41:42.181Z,99.90
2022-12-16T19:44:27.673Z,99.90
2022-12-16T19:47:14.221Z,99.90
2022-12-16T19:49:59.886Z,99.90
2022-12-16T19:52:45.260Z,99.90
2022-12-16T19:55:30.853Z,99.90
2022-12-16T19:58:16.479Z,99.90
2022-12-16T20:01:02.270Z,99.90
2022-12-16T20:03:48.259Z,99.90
2022-12-16T20:06:34.373Z,99.90
2022-12-16T20:09:19.803Z,99.90
2022-12-16T20:12:05.269Z,99.90
2022-12-16T20:14:51.631Z,99.90
2022-12-16T20:17:37.029Z,99.90
2022-12-16T20:20:22.761Z,99.80
2022-12-16T20:23:08.344Z,99.80
2022-12-16T20:25:56.401Z,99.80
2022-12-16T20:28:42.250Z,99.90
2022-12-16T20:31:27.687Z,99.90
2022-12-16T20:34:16.802Z,99.70
2022-12-16T20:37:02.477Z,99.90
2022-12-16T20:39:56.404Z,99.90
2022-12-16T20:42:47.582Z,99.90
2022-12-16T20:45:33.849Z,99.90
2022-12-16T20:48:19.840Z,99.90
2022-12-16T20:51:24.478Z,99.90
2022-12-16T20:54:11.323Z,99.90
2022-12-16T20:56:56.801Z,99.90
2022-12-16T20:59:41.990Z,99.90
2022-12-16T21:02:33.627Z,99.90
2022-12-16T21:05:20.575Z,99.90
2022-12-16T21:08:06.357Z,99.90
2022-12-16T21:10:51.759Z,99.90
2022-12-16T21:13:37.709Z,99.90
2022-12-16T21:16:24.854Z,99.90
2022-12-16T21:19:11.070Z,99.90
2022-12-16T21:21:56.905Z,99.90
2022-12-16T21:24:42.841Z,99.90
2022-12-16T21:27:28.174Z,99.90
2022-12-16T21:30:13.610Z,99.90
2022-12-16T21:32:59.318Z,99.90
2022-12-16T21:35:44.777Z,99.90
2022-12-16T21:38:31.287Z,99.90
2022-12-16T21:41:16.926Z,99.90
2022-12-16T21:44:02.529Z,99.90
2022-12-16T21:46:48.254Z,99.90
2022-12-16T21:49:33.902Z,99.90
2022-12-16T21:52:19.452Z,99.90
2022-12-16T21:55:05.465Z,99.90
2022-12-16T21:57:51.225Z,99.90
2022-12-16T22:00:38.696Z,99.90
2022-12-16T22:03:24.173Z,99.90
2022-12-16T22:06:09.445Z,99.90
2022-12-16T22:08:56.229Z,99.90
2022-12-16T22:11:41.957Z,99.80
2022-12-16T22:14:27.235Z,99.80
2022-12-16T22:17:12.668Z,99.80
2022-12-16T22:19:58.320Z,99.90
2022-12-16T22:22:43.707Z,99.80
2022-12-16T22:25:29.072Z,99.70
2022-12-16T22:28:14.606Z,99.80
2022-12-16T22:31:22.478Z,99.70
2022-12-16T22:34:10.828Z,99.50
2022-12-16T22:36:56.957Z,99.70
2022-12-16T22:39:44.872Z,99.50
2022-12-16T22:42:48.164Z,99.70
2022-12-16T22:45:33.944Z,99.60
2022-12-16T22:48:19.218Z,99.80
2022-12-16T22:51:04.438Z,99.90
2022-12-16T22:53:50.045Z,99.60
2022-12-16T22:56:35.249Z,99.60
2022-12-16T22:59:20.813Z,99.60
2022-12-16T23:02:06.253Z,99.60
2022-12-16T23:04:51.629Z,99.70
2022-12-16T23:07:37.631Z,99.60
2022-12-16T23:10:23.701Z,99.60
2022-12-16T23:13:13.737Z,99.40
2022-12-16T23:15:59.446Z,99.60
2022-12-16T23:18:44.665Z,99.50
2022-12-16T23:21:36.557Z,99.50
2022-12-16T23:24:22.439Z,99.40
2022-12-16T23:27:07.966Z,99.40
2022-12-16T23:29:53.375Z,99.50
2022-12-16T23:32:43.014Z,99.40
2022-12-16T23:35:28.351Z,99.40
2022-12-16T23:38:25.142Z,99.30
2022-12-16T23:41:17.477Z,99.30
2022-12-16T23:44:03.878Z,99.50
2022-12-16T23:46:49.739Z,99.30
2022-12-16T23:49:35.279Z,99.60
2022-12-16T23:52:20.374Z,99.60
2022-12-16T23:55:05.683Z,99.40
2022-12-16T23:57:51.242Z,99.40
